Time;durP1;ratioP1;P1;durP2;ratioP2;P2;SDS_P1;SDS_P2;PMS_P1;PMS_P2;Temp;Humidity;BMP_temperature;BMP_pressure;BME280_temperature;BME280_humidity;BME280_pressure;Samples;Min_cycle;Max_cycle;Signal;HPM_P1;HPM_P2
2022/07/12 00:00:50;;;;;;;3.45;1.35;;;16.30;99.90;;;;;;5012703;28;20030;-75
2022/07/12 00:03:15;;;;;;;1.60;1.27;;;16.40;99.90;;;;;;5012239;28;20101;-76
2022/07/12 00:05:41;;;;;;;1.25;0.90;;;16.30;99.90;;;;;;5012477;28;20112;-76
2022/07/12 00:08:06;;;;;;;1.63;1.17;;;16.40;99.90;;;;;;5012184;28;20038;-75
2022/07/12 00:10:32;;;;;;;1.45;1.35;;;16.30;99.90;;;;;;5012479;28;20053;-75
2022/07/12 00:12:58;;;;;;;1.40;0.93;;;16.30;99.90;;;;;;5012282;28;20026;-75
2022/07/12 00:15:24;;;;;;;1.38;1.20;;;16.30;99.90;;;;;;5012159;28;20022;-75
2022/07/12 00:17:50;;;;;;;4.15;1.42;;;16.20;99.90;;;;;;5012324;28;20045;-75
2022/07/12 00:20:16;;;;;;;1.58;1.20;;;16.20;99.90;;;;;;5012239;28;20029;-75
2022/07/12 00:22:41;;;;;;;1.45;1.35;;;16.20;99.90;;;;;;5011697;28;20034;-75
2022/07/12 00:25:07;;;;;;;1.98;0.98;;;16.20;99.90;;;;;;5012606;28;20030;-75
2022/07/12 00:27:33;;;;;;;1.67;1.15;;;16.20;99.90;;;;;;5011613;28;20048;-75
2022/07/12 00:29:59;;;;;;;1.60;1.08;;;16.10;99.90;;;;;;5012203;28;20014;-75
2022/07/12 00:32:24;;;;;;;2.95;1.70;;;16.00;99.90;;;;;;4994616;28;20049;-75
2022/07/12 00:34:50;;;;;;;1.85;1.40;;;16.00;99.90;;;;;;5011773;28;20030;-75
2022/07/12 00:37:15;;;;;;;2.10;1.27;;;16.00;99.90;;;;;;5011360;28;20068;-75
2022/07/12 00:39:41;;;;;;;1.90;1.70;;;16.10;99.90;;;;;;5012151;28;20033;-75
2022/07/12 00:42:06;;;;;;;3.22;1.83;;;16.50;99.90;;;;;;5011908;28;20080;-75
2022/07/12 00:44:33;;;;;;;1.95;1.50;;;18.00;99.90;;;;;;4990300;28;20030;-75
2022/07/12 00:47:02;;;;;;;2.42;1.50;;;16.00;99.90;;;;;;5011094;28;20124;-75
2022/07/12 00:49:30;;;;;;;2.15;1.48;;;16.00;99.90;;;;;;5011757;28;20091;-75
2022/07/12 00:51:55;;;;;;;2.60;1.58;;;15.90;99.90;;;;;;5011707;28;20034;-75
2022/07/12 00:54:21;;;;;;;1.88;1.52;;;16.30;99.90;;;;;;5011179;28;20101;-75
2022/07/12 00:56:47;;;;;;;2.83;1.50;;;15.90;99.90;;;;;;5011453;28;20034;-75
2022/07/12 00:59:13;;;;;;;1.58;1.35;;;15.90;99.90;;;;;;5011598;28;20030;-75
2022/07/12 01:01:40;;;;;;;2.05;1.65;;;15.90;99.90;;;;;;5011484;28;20080;-75
2022/07/12 01:04:06;;;;;;;2.10;1.40;;;15.90;99.90;;;;;;5011295;28;20026;-75
2022/07/12 01:06:33;;;;;;;1.48;1.23;;;15.70;99.90;;;;;;5011092;28;20026;-75
2022/07/12 01:08:59;;;;;;;1.50;1.40;;;15.80;99.90;;;;;;5011516;28;20076;-75
2022/07/12 01:11:25;;;;;;;1.98;1.55;;;15.80;99.90;;;;;;5011220;28;20034;-75
2022/07/12 01:13:52;;;;;;;2.28;1.40;;;15.80;99.90;;;;;;5011177;28;20026;-75
2022/07/12 01:16:20;;;;;;;1.75;1.52;;;15.60;99.90;;;;;;5011229;28;20066;-75
2022/07/12 01:18:46;;;;;;;2.13;1.77;;;15.70;99.90;;;;;;5011189;28;20093;-75
2022/07/12 01:21:18;;;;;;;2.15;1.42;;;15.60;99.90;;;;;;5010769;28;20076;-75
2022/07/12 01:23:45;;;;;;;2.95;1.55;;;15.70;99.90;;;;;;5010727;28;20026;-75
2022/07/12 01:26:11;;;;;;;2.58;1.85;;;15.70;99.90;;;;;;5010758;28;20046;-75
2022/07/12 01:28:38;;;;;;;1.95;1.58;;;15.60;99.90;;;;;;5011032;28;20100;-75
2022/07/12 01:31:04;;;;;;;3.47;1.55;;;15.60;99.90;;;;;;5011304;28;20022;-75
2022/07/12 01:33:30;;;;;;;2.20;2.00;;;15.60;99.90;;;;;;5010231;28;20030;-75
2022/07/12 01:35:57;;;;;;;1.70;1.30;;;15.70;99.90;;;;;;5010986;28;20022;-75
2022/07/12 01:38:22;;;;;;;2.55;1.80;;;15.60;99.90;;;;;;5010328;28;20018;-75
2022/07/12 01:40:48;;;;;;;1.60;1.50;;;15.60;99.90;;;;;;5010608;28;20018;-75
2022/07/12 01:43:14;;;;;;;2.30;1.50;;;15.50;99.90;;;;;;5010646;28;20033;-75
2022/07/12 01:45:41;;;;;;;1.60;1.45;;;15.50;99.90;;;;;;5010447;28;20502;-75
2022/07/12 01:48:06;;;;;;;1.60;1.50;;;15.40;99.90;;;;;;5010452;28;20475;-75
2022/07/12 01:50:32;;;;;;;2.13;1.70;;;15.20;99.90;;;;;;5010581;28;20029;-75
2022/07/12 01:52:58;;;;;;;2.05;1.58;;;15.50;99.90;;;;;;5010317;28;20025;-75
2022/07/12 01:55:23;;;;;;;3.45;1.45;;;15.40;99.90;;;;;;5010174;28;20045;-75
2022/07/12 01:57:49;;;;;;;1.77;1.52;;;15.40;99.90;;;;;;5009965;28;20030;-75
2022/07/12 02:00:16;;;;;;;1.55;1.25;;;15.30;99.90;;;;;;5010601;28;20116;-76
2022/07/12 02:02:45;;;;;;;1.70;1.50;;;15.20;99.90;;;;;;4992052;28;20030;-75
2022/07/12 02:05:10;;;;;;;1.85;1.35;;;15.10;99.90;;;;;;5010191;28;20065;-75
2022/07/12 02:07:36;;;;;;;2.08;1.80;;;15.50;99.90;;;;;;5010303;28;20487;-75
2022/07/12 02:10:05;;;;;;;2.65;1.40;;;15.20;99.90;;;;;;5010448;28;20431;-75
2022/07/12 02:12:30;;;;;;;1.15;0.98;;;15.30;99.90;;;;;;5010184;28;20042;-75
2022/07/12 02:14:56;;;;;;;2.38;1.40;;;15.30;99.90;;;;;;5010273;28;20488;-75
2022/07/12 02:17:21;;;;;;;2.10;1.30;;;15.20;99.90;;;;;;5009608;28;20053;-75
2022/07/12 02:19:47;;;;;;;3.63;1.25;;;15.20;99.90;;;;;;5010133;28;20060;-75
2022/07/12 02:22:12;;;;;;;1.90;1.70;;;15.10;99.90;;;;;;5009753;28;20022;-75
2022/07/12 02:24:38;;;;;;;1.90;1.70;;;15.10;99.90;;;;;;5009990;28;20042;-75
2022/07/12 02:27:04;;;;;;;2.20;1.52;;;14.80;99.90;;;;;;4991087;28;20034;-75
2022/07/12 02:29:29;;;;;;;1.83;1.73;;;15.10;99.90;;;;;;5007589;28;20033;-75
2022/07/12 02:31:55;;;;;;;2.45;1.83;;;15.10;99.90;;;;;;5007717;28;20040;-75
2022/07/12 02:34:21;;;;;;;3.30;2.03;;;15.10;99.90;;;;;;5007899;28;20052;-75
2022/07/12 02:36:46;;;;;;;2.38;2.17;;;15.00;99.90;;;;;;5007746;28;20056;-75
2022/07/12 02:39:11;;;;;;;4.07;1.92;;;15.00;99.90;;;;;;5007780;28;20034;-75
2022/07/12 02:41:37;;;;;;;2.53;1.63;;;15.00;99.90;;;;;;5008236;28;20021;-75
2022/07/12 02:44:03;;;;;;;2.20;2.00;;;15.00;99.90;;;;;;5009066;28;20040;-76
2022/07/12 02:46:28;;;;;;;2.00;1.80;;;14.90;99.90;;;;;;5009201;28;20271;-76
2022/07/12 02:48:54;;;;;;;4.70;1.98;;;14.90;99.90;;;;;;5009803;28;20034;-76
2022/07/12 02:51:20;;;;;;;2.90;2.13;;;14.90;99.90;;;;;;4995919;28;20022;-75
2022/07/12 02:53:45;;;;;;;2.20;2.00;;;14.90;99.90;;;;;;5007461;28;20061;-76
2022/07/12 02:56:11;;;;;;;2.17;1.98;;;14.40;99.90;;;;;;4991855;28;20541;-76
2022/07/12 02:58:37;;;;;;;2.30;2.00;;;15.00;99.90;;;;;;5009726;28;20025;-76
2022/07/12 03:01:03;;;;;;;1.90;1.67;;;14.90;99.90;;;;;;5009393;28;20030;-76
2022/07/12 03:03:28;;;;;;;2.42;2.22;;;14.90;99.90;;;;;;5007863;28;20038;-75
2022/07/12 03:05:54;;;;;;;4.28;2.28;;;14.40;99.90;;;;;;5009008;28;20030;-75
2022/07/12 03:08:19;;;;;;;3.30;2.40;;;14.80;99.90;;;;;;5009690;28;20045;-75
2022/07/12 03:10:45;;;;;;;2.80;2.58;;;15.00;99.90;;;;;;5013414;28;20025;-76
2022/07/12 03:13:11;;;;;;;3.65;3.33;;;14.70;99.90;;;;;;5013310;28;20034;-75
2022/07/12 03:15:36;;;;;;;3.55;3.00;;;14.20;99.90;;;;;;5013446;28;20554;-76
2022/07/12 03:18:02;;;;;;;3.75;3.45;;;14.70;99.90;;;;;;5013962;28;20403;-76
2022/07/12 03:20:30;;;;;;;3.78;3.42;;;14.80;99.90;;;;;;5013008;28;20037;-76
2022/07/12 03:22:56;;;;;;;4.40;3.30;;;14.60;99.90;;;;;;5013487;28;20034;-76
2022/07/12 03:25:22;;;;;;;4.78;4.13;;;14.60;99.90;;;;;;4995251;28;20475;-76
2022/07/12 03:27:48;;;;;;;4.72;3.65;;;14.80;99.90;;;;;;5013425;28;20391;-76
2022/07/12 03:30:15;;;;;;;5.78;5.20;;;14.80;99.90;;;;;;5012817;28;20483;-76
2022/07/12 03:32:40;;;;;;;5.50;4.90;;;14.70;99.90;;;;;;5013401;28;20030;-76
2022/07/12 03:35:07;;;;;;;6.38;5.78;;;14.80;99.90;;;;;;5013297;28;20220;-76
2022/07/12 03:37:46;;;;;;;6.43;5.82;;;14.90;99.90;;;;;;5012719;28;20038;-76
2022/07/12 03:40:13;;;;;;;6.47;5.85;;;14.60;99.90;;;;;;5013156;28;20427;-76
2022/07/12 03:42:39;;;;;;;6.18;5.57;;;14.70;99.90;;;;;;5013272;28;20221;-76
2022/07/12 03:45:06;;;;;;;5.40;4.97;;;14.90;99.90;;;;;;5012759;28;20084;-76
2022/07/12 03:47:32;;;;;;;5.80;5.25;;;15.10;99.90;;;;;;4994628;28;20042;-76
2022/07/12 03:49:58;;;;;;;6.18;5.68;;;14.80;99.90;;;;;;5013036;28;20037;-76
2022/07/12 03:52:23;;;;;;;7.88;4.90;;;15.20;99.90;;;;;;5012832;28;20038;-76
2022/07/12 03:54:49;;;;;;;7.30;5.25;;;14.90;99.90;;;;;;5012899;28;20340;-76
2022/07/12 03:57:15;;;;;;;6.97;5.80;;;14.80;99.90;;;;;;4994901;28;20471;-76
2022/07/12 03:59:45;;;;;;;6.53;5.82;;;14.90;99.90;;;;;;5012318;28;20057;-75
2022/07/12 04:02:11;;;;;;;5.20;4.72;;;;;;;;;;5012581;28;20381;-75
2022/07/12 04:04:37;;;;;;;6.07;5.57;;;14.80;99.90;;;;;;5012696;28;20522;-76
2022/07/12 04:07:03;;;;;;;7.22;5.95;;;14.80;99.90;;;;;;4994876;28;20129;-76
2022/07/12 04:09:29;;;;;;;6.45;5.00;;;14.70;99.90;;;;;;5012414;28;20036;-76
2022/07/12 04:11:54;;;;;;;5.18;4.68;;;14.70;99.90;;;;;;5012536;28;20112;-76
2022/07/12 04:14:20;;;;;;;7.55;5.22;;;14.80;99.90;;;;;;5011843;28;20022;-76
2022/07/12 04:16:45;;;;;;;5.57;4.95;;;15.70;99.90;;;;;;5011927;28;20076;-76
2022/07/12 04:19:11;;;;;;;5.82;5.32;;;14.80;99.90;;;;;;5012172;28;20391;-76
2022/07/12 04:21:37;;;;;;;6.95;6.25;;;14.70;99.90;;;;;;5012328;28;20029;-76
2022/07/12 04:24:04;;;;;;;6.57;6.05;;;14.50;99.90;;;;;;5012663;28;20168;-76
2022/07/12 04:26:30;;;;;;;7.53;6.00;;;14.80;99.90;;;;;;5011951;28;20038;-76
2022/07/12 04:28:55;;;;;;;7.78;7.00;;;14.90;99.90;;;;;;4994136;28;20022;-76
2022/07/12 04:31:21;;;;;;;7.65;6.60;;;14.80;99.90;;;;;;5012089;28;20026;-75
2022/07/12 04:33:46;;;;;;;7.43;6.82;;;14.70;99.90;;;;;;5011945;28;20021;-76
2022/07/12 04:36:12;;;;;;;7.78;7.18;;;15.00;99.90;;;;;;5011823;28;20022;-77
2022/07/12 04:38:37;;;;;;;8.45;7.30;;;14.90;99.90;;;;;;5011948;28;20061;-76
2022/07/12 04:41:03;;;;;;;8.15;7.45;;;15.00;99.90;;;;;;5012494;28;20026;-76
2022/07/12 04:43:28;;;;;;;9.90;8.02;;;15.00;99.90;;;;;;5011332;28;20026;-76
2022/07/12 04:45:54;;;;;;;9.35;8.55;;;15.00;99.90;;;;;;5011674;28;20054;-76
2022/07/12 04:48:19;;;;;;;9.10;8.38;;;14.60;99.90;;;;;;5011828;28;20041;-76
2022/07/12 04:50:45;;;;;;;9.70;8.80;;;15.10;99.90;;;;;;5010945;28;20018;-75
2022/07/12 04:53:11;;;;;;;9.30;8.48;;;15.40;99.90;;;;;;5011072;28;20025;-76
2022/07/12 04:55:37;;;;;;;9.50;8.70;;;15.30;99.90;;;;;;5011026;28;20032;-76
2022/07/12 04:58:04;;;;;;;9.95;9.25;;;15.40;99.90;;;;;;5011018;28;20022;-76
2022/07/12 05:00:30;;;;;;;9.55;8.85;;;15.40;99.90;;;;;;5010524;28;20033;-76
2022/07/12 05:02:56;;;;;;;11.20;10.20;;;15.50;99.90;;;;;;5010919;28;20041;-76
2022/07/12 05:05:21;;;;;;;9.50;8.77;;;15.50;99.90;;;;;;5011042;28;20026;-76
2022/07/12 05:07:47;;;;;;;12.15;11.15;;;15.90;99.90;;;;;;5010246;28;20368;-76
2022/07/12 05:10:13;;;;;;;12.93;11.82;;;15.70;99.90;;;;;;5011195;28;20026;-76
2022/07/12 05:12:38;;;;;;;13.27;12.18;;;15.80;99.90;;;;;;5012531;28;20029;-76
2022/07/12 05:15:05;;;;;;;12.93;11.82;;;15.80;99.90;;;;;;5011205;28;20057;-76
2022/07/12 05:17:31;;;;;;;15.35;14.05;;;16.00;99.90;;;;;;5010769;28;20135;-76
2022/07/12 05:19:56;;;;;;;14.55;13.35;;;15.90;99.90;;;;;;5011029;28;20061;-76
2022/07/12 05:22:22;;;;;;;15.38;14.07;;;16.00;99.90;;;;;;5011196;28;20038;-76
2022/07/12 05:24:48;;;;;;;17.17;15.57;;;16.40;99.90;;;;;;5011093;28;20542;-76
2022/07/12 05:27:13;;;;;;;18.30;16.73;;;16.30;99.90;;;;;;5010813;28;20498;-76
2022/07/12 05:29:39;;;;;;;20.17;18.48;;;16.40;99.90;;;;;;4993401;28;20076;-76
2022/07/12 05:32:05;;;;;;;19.00;17.40;;;16.50;99.90;;;;;;5010493;28;20030;-76
2022/07/12 05:34:31;;;;;;;24.60;22.40;;;16.60;99.90;;;;;;5010987;28;20097;-76
2022/07/12 05:36:56;;;;;;;21.02;19.33;;;17.80;99.90;;;;;;5011155;28;20045;-76
2022/07/12 05:39:22;;;;;;;18.65;17.15;;;16.70;99.90;;;;;;5011011;28;20068;-76
2022/07/12 05:41:47;;;;;;;20.23;18.60;;;16.80;99.90;;;;;;5009810;28;20361;-76
2022/07/12 05:44:15;;;;;;;19.70;18.10;;;16.90;99.90;;;;;;5010234;28;20026;-76
2022/07/12 05:46:40;;;;;;;21.48;19.73;;;17.00;99.90;;;;;;5009633;28;20026;-76
2022/07/12 05:49:06;;;;;;;20.67;19.05;;;17.00;99.90;;;;;;5010480;28;20194;-76
2022/07/12 05:54:20;;;;;;;19.38;17.75;;;17.30;99.90;;;;;;4968816;28;20039;-76
2022/07/12 05:56:46;;;;;;;18.55;17.15;;;17.40;99.90;;;;;;4967823;28;20043;-76
2022/07/12 05:59:11;;;;;;;19.25;17.63;;;17.60;99.90;;;;;;4968868;28;20557;-76
2022/07/12 06:01:37;;;;;;;17.67;16.27;;;17.60;99.90;;;;;;4968605;28;20034;-76
2022/07/12 06:04:03;;;;;;;18.05;16.52;;;17.90;99.90;;;;;;4969660;28;20114;-76
2022/07/12 06:06:28;;;;;;;16.92;15.52;;;17.90;99.90;;;;;;4969029;28;20054;-76
2022/07/12 06:08:54;;;;;;;18.80;17.35;;;18.00;99.90;;;;;;4968884;28;20050;-76
2022/07/12 06:11:20;;;;;;;15.27;14.07;;;18.10;99.90;;;;;;4968696;28;20077;-76
2022/07/12 06:13:45;;;;;;;15.57;14.27;;;18.20;99.90;;;;;;4968806;28;20039;-76
2022/07/12 06:16:11;;;;;;;16.25;14.95;;;18.20;99.90;;;;;;4968584;28;20134;-76
2022/07/12 06:18:37;;;;;;;16.90;15.35;;;18.40;99.90;;;;;;4968779;28;20047;-76
2022/07/12 06:21:03;;;;;;;15.50;14.30;;;18.50;99.90;;;;;;4969089;28;20461;-76
2022/07/12 06:23:29;;;;;;;14.63;13.30;;;18.50;99.90;;;;;;4968078;28;20122;-76
2022/07/12 06:25:55;;;;;;;13.30;12.18;;;18.40;99.90;;;;;;4968614;28;20046;-76
2022/07/12 06:28:21;;;;;;;11.18;10.20;;;18.60;99.90;;;;;;4968514;28;20526;-76
2022/07/12 06:30:46;;;;;;;12.52;11.60;;;18.60;99.90;;;;;;4979981;28;20034;-76
2022/07/12 06:33:12;;;;;;;12.00;10.93;;;18.60;99.90;;;;;;5009695;28;20037;-76
2022/07/12 06:35:37;;;;;;;16.70;15.30;;;18.70;99.90;;;;;;4992419;28;20033;-77
2022/07/12 06:38:03;;;;;;;14.32;13.15;;;19.00;99.90;;;;;;5009437;28;20127;-76
2022/07/12 06:40:29;;;;;;;17.23;15.82;;;18.90;99.90;;;;;;4991580;28;20804;-76
2022/07/12 06:42:54;;;;;;;13.13;12.13;;;18.90;99.90;;;;;;5009615;28;20114;-76
2022/07/12 06:45:20;;;;;;;14.20;12.80;;;18.70;99.90;;;;;;4992654;28;20034;-76
2022/07/12 06:47:46;;;;;;;13.95;12.85;;;19.00;99.90;;;;;;4992365;28;20093;-76
2022/07/12 06:50:12;;;;;;;13.45;12.30;;;18.90;99.90;;;;;;4992505;28;20030;-76
2022/07/12 06:52:37;;;;;;;12.30;11.35;;;18.90;99.90;;;;;;5009518;28;20026;-76
2022/07/12 06:55:03;;;;;;;14.38;13.05;;;18.90;99.90;;;;;;5009535;28;20022;-76
2022/07/12 06:57:33;;;;;;;13.15;12.15;;;19.00;99.90;;;;;;5009800;28;20037;-76
2022/07/12 06:59:59;;;;;;;13.00;12.00;;;19.10;99.90;;;;;;5009504;28;20069;-76
2022/07/12 07:02:24;;;;;;;13.80;12.70;;;19.30;99.90;;;;;;4991895;28;20025;-75
2022/07/12 07:04:50;;;;;;;12.80;11.70;;;19.40;99.90;;;;;;5009649;28;20097;-76
2022/07/12 07:07:15;;;;;;;12.30;11.30;;;19.90;99.90;;;;;;5008740;28;20046;-76
2022/07/12 07:09:41;;;;;;;11.10;10.00;;;19.80;99.90;;;;;;5009476;28;20030;-75
2022/07/12 07:12:07;;;;;;;10.48;9.30;;;20.00;99.90;;;;;;5001251;28;20032;-76
2022/07/12 07:14:33;;;;;;;8.75;7.90;;;20.30;99.90;;;;;;5009297;28;20348;-75
2022/07/12 07:16:59;;;;;;;10.07;9.05;;;20.40;99.90;;;;;;5009582;28;20042;-77
2022/07/12 07:19:26;;;;;;;10.32;7.57;;;20.60;99.90;;;;;;5009369;28;20112;-75
2022/07/12 07:21:55;;;;;;;8.57;7.07;;;20.80;99.90;;;;;;5007637;28;20153;-78
2022/07/12 07:24:20;;;;;;;8.52;7.00;;;21.10;99.90;;;;;;5007791;28;20034;-77
2022/07/12 07:26:46;;;;;;;6.93;6.22;;;21.30;99.90;;;;;;5008060;28;20185;-76
2022/07/12 07:31:56;;;;;;;6.55;5.78;;;21.70;99.90;;;;;;5008312;28;20068;-75
2022/07/12 07:34:23;;;;;;;6.40;5.90;;;21.90;99.90;;;;;;5008097;28;20433;-76
2022/07/12 07:36:49;;;;;;;6.82;6.22;;;22.10;99.90;;;;;;5007448;28;20022;-77
2022/07/12 07:39:15;;;;;;;6.60;6.00;;;22.80;99.90;;;;;;5007835;28;20053;-77
2022/07/12 07:41:40;;;;;;;7.55;6.88;;;22.30;99.90;;;;;;5010533;28;20045;-77
2022/07/12 07:44:06;;;;;;;5.80;5.15;;;24.60;99.90;;;;;;5012014;28;20409;-77
2022/07/12 07:46:31;;;;;;;7.20;6.60;;;23.30;99.90;;;;;;5015880;28;20076;-77
2022/07/12 07:48:57;;;;;;;7.28;6.57;;;22.20;99.90;;;;;;5007756;28;20053;-76
2022/07/12 07:51:22;;;;;;;7.45;6.75;;;22.30;99.90;;;;;;5007536;28;20052;-77
2022/07/12 07:53:48;;;;;;;6.65;6.15;;;22.20;99.90;;;;;;5007721;28;20033;-75
2022/07/12 07:56:13;;;;;;;7.60;6.47;;;22.60;99.90;;;;;;5014194;28;20022;-75
2022/07/12 07:58:39;;;;;;;7.43;6.82;;;22.10;99.90;;;;;;5017235;28;20046;-74
2022/07/12 08:01:05;;;;;;;6.82;6.13;;;23.10;99.90;;;;;;5011530;28;20018;-75
2022/07/12 08:03:30;;;;;;;6.82;6.22;;;22.40;99.90;;;;;;5011404;28;20101;-75
2022/07/12 08:05:58;;;;;;;5.88;5.38;;;22.50;99.90;;;;;;5009601;28;20018;-78
2022/07/12 08:08:24;;;;;;;6.35;5.75;;;22.70;99.90;;;;;;5011974;28;20061;-76
2022/07/12 08:10:50;;;;;;;6.03;5.38;;;22.20;99.90;;;;;;5008547;28;20110;-76
2022/07/12 08:13:16;;;;;;;8.02;6.07;;;23.00;99.90;;;;;;5010840;28;20026;-76
2022/07/12 08:15:42;;;;;;;5.72;5.18;;;24.10;99.90;;;;;;4994826;28;20083;-75
2022/07/12 08:18:07;;;;;;;5.72;5.22;;;23.20;99.60;;;;;;4995121;28;20049;-76
2022/07/12 08:20:33;;;;;;;6.38;5.10;;;23.10;99.30;;;;;;5011636;28;20411;-76
2022/07/12 08:22:59;;;;;;;7.72;6.97;;;23.10;99.30;;;;;;5012046;28;20099;-75
2022/07/12 08:25:24;;;;;;;5.35;4.90;;;23.00;99.20;;;;;;5009159;28;20033;-76
2022/07/12 08:27:50;;;;;;;5.50;5.07;;;23.20;99.00;;;;;;5020259;28;20380;-76
2022/07/12 08:30:16;;;;;;;5.15;4.75;;;23.40;98.80;;;;;;5015865;28;20497;-75
2022/07/12 08:32:45;;;;;;;4.45;4.05;;;23.50;98.50;;;;;;5007032;28;20077;-74
2022/07/12 08:35:10;;;;;;;4.85;4.45;;;23.60;98.60;;;;;;5011613;28;20030;-80
2022/07/12 08:37:36;;;;;;;4.90;4.25;;;23.60;98.00;;;;;;5012535;28;20048;-82
2022/07/12 08:40:03;;;;;;;5.00;4.20;;;23.80;97.80;;;;;;5012971;28;20026;-80
2022/07/12 08:42:28;;;;;;;3.45;3.15;;;23.60;97.60;;;;;;5012283;28;20045;-84
2022/07/12 08:44:57;;;;;;;3.03;2.83;;;23.70;97.50;;;;;;5010625;28;20038;-84
2022/07/12 08:47:23;;;;;;;4.65;4.35;;;24.20;97.80;;;;;;5011708;28;20037;-80
2022/07/12 08:50:12;;;;;;;3.35;3.05;;;24.40;97.20;;;;;;5006194;28;20034;-84
2022/07/12 08:52:42;;;;;;;2.78;2.58;;;23.80;96.60;;;;;;5011364;28;20446;-86
2022/07/12 08:55:19;;;;;;;3.97;2.47;;;23.60;97.20;;;;;;5010516;28;20022;-86
2022/07/12 08:57:45;;;;;;;2.88;2.67;;;23.70;97.30;;;;;;5005695;28;20554;-87
2022/07/12 09:00:12;;;;;;;3.38;2.95;;;24.80;97.10;;;;;;5009775;28;20026;-87
2022/07/12 09:02:45;;;;;;;3.53;3.22;;;23.60;96.70;;;;;;4993504;28;20034;-87
2022/07/12 09:05:11;;;;;;;3.03;2.72;;;23.50;96.90;;;;;;5010633;28;20084;-87
2022/07/12 09:07:37;;;;;;;3.05;2.35;;;23.60;96.50;;;;;;4991505;28;20506;-87
2022/07/12 09:10:08;;;;;;;3.17;2.90;;;23.80;96.40;;;;;;5000563;28;20035;-86
2022/07/12 09:12:35;;;;;;;2.30;2.10;;;23.70;96.50;;;;;;4994352;28;20034;-86
2022/07/12 09:15:30;;;;;;;3.15;1.92;;;23.90;96.30;;;;;;5012411;28;20076;-87
2022/07/12 09:18:28;;;;;;;1.92;1.73;;;23.80;95.50;;;;;;5011264;28;20519;-87
2022/07/12 09:20:54;;;;;;;2.25;2.05;;;25.00;96.30;;;;;;5008085;28;20046;-79
2022/07/12 09:23:20;;;;;;;2.70;2.22;;;23.50;95.50;;;;;;5007753;28;20018;-77
2022/07/12 09:25:48;;;;;;;4.32;1.85;;;23.80;95.60;;;;;;5008090;28;20037;-78
2022/07/12 09:28:16;;;;;;;2.22;2.03;;;24.90;96.10;;;;;;5004358;28;20049;-77
2022/07/12 09:30:50;;;;;;;2.83;2.47;;;24.10;95.60;;;;;;5010613;28;20029;-76
2022/07/12 09:36:17;;;;;;;2.17;1.98;;;23.90;95.50;;;;;;5010024;28;20406;-77
2022/07/12 09:38:49;;;;;;;2.80;2.17;;;24.00;95.20;;;;;;5010403;28;20026;-77
2022/07/12 09:41:19;;;;;;;2.75;2.55;;;24.10;94.50;;;;;;4992285;28;20033;-75
2022/07/12 09:43:46;;;;;;;5.03;2.90;;;24.10;95.20;;;;;;5010293;28;20108;-75
2022/07/12 09:46:13;;;;;;;3.63;2.78;;;24.10;95.00;;;;;;5009405;28;20025;-75
2022/07/12 09:48:41;;;;;;;2.97;2.67;;;24.50;95.10;;;;;;5009838;28;20434;-78
2022/07/12 09:51:09;;;;;;;1.58;1.48;;;24.10;94.90;;;;;;5009746;28;20479;-76
2022/07/12 09:53:43;;;;;;;2.55;1.98;;;24.30;94.80;;;;;;5009489;28;20466;-77
2022/07/12 09:56:12;;;;;;;1.80;1.58;;;24.30;94.80;;;;;;5004674;28;20073;-78
2022/07/12 09:58:43;;;;;;;2.05;1.80;;;24.30;94.70;;;;;;5010118;28;20122;-80
2022/07/12 10:01:10;;;;;;;2.20;1.45;;;24.40;94.40;;;;;;5009275;28;20018;-80
2022/07/12 10:03:39;;;;;;;2.28;1.40;;;24.30;94.20;;;;;;5010219;28;20113;-80
2022/07/12 10:06:07;;;;;;;2.35;1.73;;;24.30;94.20;;;;;;4991904;28;20479;-78
2022/07/12 10:08:32;;;;;;;1.88;1.60;;;24.40;94.10;;;;;;4995670;28;20037;-78
2022/07/12 10:10:58;;;;;;;1.75;1.60;;;24.40;93.80;;;;;;5009339;28;20026;-79
2022/07/12 10:13:25;;;;;;;2.50;1.70;;;25.70;94.20;;;;;;5005204;28;20037;-79
2022/07/12 10:15:51;;;;;;;2.25;1.30;;;24.50;93.70;;;;;;5008700;28;20087;-79
2022/07/12 10:18:20;;;;;;;2.60;2.17;;;24.60;93.50;;;;;;5005640;28;20050;-79
2022/07/12 10:20:48;;;;;;;2.08;1.70;;;24.70;93.60;;;;;;4990993;28;20841;-78
2022/07/12 10:23:19;;;;;;;3.70;1.70;;;24.80;93.30;;;;;;5007784;28;20045;-78
2022/07/12 10:25:44;;;;;;;2.38;2.15;;;24.80;92.50;;;;;;5009103;28;20088;-78
2022/07/12 10:28:10;;;;;;;3.70;1.60;;;24.80;92.90;;;;;;5008232;28;20030;-78
2022/07/12 10:30:44;;;;;;;2.33;2.13;;;24.80;92.70;;;;;;5008191;28;20057;-78
2022/07/12 10:33:21;;;;;;;2.63;2.10;;;25.00;93.00;;;;;;5003194;28;20024;-78
2022/07/12 10:36:07;;;;;;;2.50;2.10;;;24.90;92.70;;;;;;5009380;28;20026;-79
2022/07/12 10:38:33;;;;;;;2.70;2.50;;;25.10;91.90;;;;;;5008353;28;20547;-78
2022/07/12 10:41:24;;;;;;;2.85;2.60;;;25.20;92.30;;;;;;5009278;28;20022;-80
2022/07/12 10:44:05;;;;;;;2.47;2.28;;;25.20;92.40;;;;;;5009147;28;20549;-76
2022/07/12 10:46:31;;;;;;;3.95;3.42;;;25.30;92.40;;;;;;5008109;28;20030;-75
2022/07/12 10:49:28;;;;;;;4.22;3.80;;;25.30;91.90;;;;;;5008755;28;20034;-77
2022/07/12 10:52:24;;;;;;;3.40;3.13;;;25.40;91.40;;;;;;4990605;28;20025;-77
2022/07/12 10:54:50;;;;;;;4.57;4.18;;;25.40;92.10;;;;;;4992918;28;20049;-80
2022/07/12 10:57:36;;;;;;;4.47;2.80;;;25.50;91.40;;;;;;5008520;28;20021;-77
2022/07/12 11:00:03;;;;;;;3.22;2.95;;;25.60;91.30;;;;;;5007812;28;20131;-77
2022/07/12 11:02:30;;;;;;;5.43;2.65;;;25.60;91.00;;;;;;5008575;28;20026;-77
2022/07/12 11:04:56;;;;;;;3.90;3.60;;;26.30;91.40;;;;;;5008644;28;20022;-76
2022/07/12 11:07:24;;;;;;;3.85;3.10;;;25.80;90.90;;;;;;5009512;28;20040;-77
2022/07/12 11:09:53;;;;;;;1.45;1.35;;;25.90;90.80;;;;;;5009806;28;20483;-77
2022/07/12 11:12:18;;;;;;;2.83;2.33;;;27.20;91.20;;;;;;5009527;28;20033;-76
2022/07/12 11:14:46;;;;;;;4.75;3.13;;;26.00;90.40;;;;;;5008815;28;20026;-76
2022/07/12 11:17:12;;;;;;;4.72;2.70;;;26.20;90.50;;;;;;5008737;28;20049;-75
2022/07/12 11:19:37;;;;;;;8.60;5.65;;;26.20;90.30;;;;;;5006783;28;20034;-75
2022/07/12 11:22:03;;;;;;;4.38;3.97;;;26.10;89.80;;;;;;5006370;28;20021;-76
2022/07/12 11:24:36;;;;;;;3.33;3.08;;;26.10;89.70;;;;;;5009204;28;20063;-77
2022/07/12 11:27:04;;;;;;;5.63;3.70;;;26.10;88.40;;;;;;5002095;28;20089;-76
2022/07/12 11:29:30;;;;;;;5.10;4.60;;;26.20;89.70;;;;;;5007725;28;20049;-77
2022/07/12 11:32:05;;;;;;;5.18;4.78;;;26.20;89.20;;;;;;5011983;28;20068;-76
2022/07/12 11:34:31;;;;;;;3.90;3.60;;;26.30;89.00;;;;;;5013035;28;20028;-76
2022/07/12 11:37:00;;;;;;;5.78;4.00;;;26.30;88.70;;;;;;5013794;28;20105;-76
2022/07/12 11:39:37;;;;;;;5.53;5.05;;;26.40;88.40;;;;;;5012783;28;20037;-77
2022/07/12 11:42:04;;;;;;;4.28;3.88;;;26.50;88.40;;;;;;5013204;28;20078;-76
2022/07/12 11:44:50;;;;;;;3.50;3.20;;;26.30;87.00;;;;;;5012698;28;20044;-77
2022/07/12 11:47:19;;;;;;;3.85;2.83;;;26.50;88.50;;;;;;4999691;28;20030;-75
2022/07/12 11:49:50;;;;;;;2.65;2.45;;;26.70;88.10;;;;;;5012779;28;20029;-77
2022/07/12 11:52:17;;;;;;;2.75;2.55;;;26.60;87.80;;;;;;5013118;28;20085;-77
2022/07/12 11:54:47;;;;;;;2.88;2.67;;;26.60;86.90;;;;;;5011532;28;20115;-77
2022/07/12 11:57:13;;;;;;;2.83;2.30;;;26.70;84.70;;;;;;5014647;28;20019;-77
2022/07/12 11:59:40;;;;;;;3.30;3.00;;;27.90;87.00;;;;;;5022972;28;20558;-78
2022/07/12 12:02:07;;;;;;;3.50;3.20;;;26.70;85.60;;;;;;4999432;28;20033;-77
2022/07/12 12:04:54;;;;;;;3.72;3.42;;;26.80;84.60;;;;;;5012972;28;20032;-78
2022/07/12 12:07:21;;;;;;;4.72;4.32;;;26.70;83.40;;;;;;5012716;28;20124;-78
2022/07/12 12:10:11;;;;;;;5.57;4.68;;;26.60;84.80;;;;;;5013326;28;20030;-78
2022/07/12 12:12:54;;;;;;;4.15;3.85;;;26.60;83.40;;;;;;5015369;28;20110;-78
2022/07/12 12:15:21;;;;;;;5.63;5.20;;;26.50;83.90;;;;;;5006586;28;20379;-78
2022/07/12 12:18:13;;;;;;;4.57;3.90;;;27.30;85.50;;;;;;4995206;28;20495;-78
2022/07/12 12:20:43;;;;;;;3.65;3.35;;;26.60;86.10;;;;;;5002678;28;20033;-78
2022/07/12 12:23:16;;;;;;;3.13;2.80;;;26.70;85.60;;;;;;5012954;28;20026;-77
2022/07/12 12:25:44;;;;;;;3.75;2.97;;;26.70;85.60;;;;;;5012883;28;20080;-78
2022/07/12 12:28:10;;;;;;;3.58;2.53;;;27.80;85.10;;;;;;5007351;28;20030;-78
2022/07/12 12:30:50;;;;;;;2.85;2.65;;;27.10;84.00;;;;;;5012530;28;20352;-78
2022/07/12 12:33:36;;;;;;;2.95;2.25;;;27.00;84.20;;;;;;5007093;28;20104;-77
2022/07/12 12:36:21;;;;;;;5.10;3.10;;;27.20;82.20;;;;;;4993141;28;20503;-78
2022/07/12 12:38:48;;;;;;;1.90;1.17;;;27.10;83.40;;;;;;5012503;28;20080;-77
2022/07/12 12:41:14;;;;;;;3.83;3.38;;;27.10;82.80;;;;;;5011589;28;20026;-78
2022/07/12 12:43:40;;;;;;;2.72;2.50;;;27.20;82.30;;;;;;5010923;28;20037;-79
2022/07/12 12:46:06;;;;;;;2.65;2.45;;;27.00;82.00;;;;;;5012017;28;20060;-76
2022/07/12 12:48:34;;;;;;;4.03;3.72;;;27.20;81.80;;;;;;5012011;28;20474;-78
2022/07/12 12:51:08;;;;;;;3.38;2.78;;;27.30;81.60;;;;;;5012747;28;20030;-79
2022/07/12 12:53:36;;;;;;;3.58;3.30;;;27.50;82.50;;;;;;5010652;28;20061;-79